createdAt,value
2018-04-23T00:00:44.671Z,1000.88
2018-04-23T00:01:44.609Z,1000.87
2018-04-23T00:02:44.695Z,1000.84
2018-04-23T00:03:44.672Z,1000.84
2018-04-23T00:04:44.610Z,1000.86
2018-04-23T00:05:44.604Z,1000.85
2018-04-23T00:06:44.679Z,1000.82
2018-04-23T00:07:44.608Z,1000.86
2018-04-23T00:08:44.672Z,1000.83
2018-04-23T00:09:44.608Z,1000.80
2018-04-23T00:10:44.616Z,1000.80
2018-04-23T00:11:44.609Z,1000.79
2018-04-23T00:12:44.611Z,1000.76
2018-04-23T00:13:44.678Z,1000.74
2018-04-23T00:14:44.682Z,1000.71
2018-04-23T00:15:44.683Z,1000.73
2018-04-23T00:16:44.684Z,1000.67
2018-04-23T00:17:44.685Z,1000.67
2018-04-23T00:18:44.684Z,1000.68
2018-04-23T00:19:44.614Z,1000.69
2018-04-23T00:20:44.683Z,1000.70
2018-04-23T00:21:44.613Z,1000.71
2018-04-23T00:22:44.697Z,1000.71
2018-04-23T00:23:44.620Z,1000.71
2018-04-23T00:24:44.687Z,1000.73
2018-04-23T00:25:44.727Z,1000.75
2018-04-23T00:26:44.714Z,1000.72
2018-04-23T00:27:44.707Z,1000.73
2018-04-23T00:28:44.717Z,1000.76
2018-04-23T00:29:44.612Z,1000.77
2018-04-23T00:30:44.660Z,1000.78
2018-04-23T00:31:44.727Z,1000.74
2018-04-23T00:32:44.671Z,1000.76
2018-04-23T00:33:44.690Z,1000.79
2018-04-23T00:34:44.699Z,1000.83
2018-04-23T00:35:44.596Z,1000.84
2018-04-23T00:36:44.660Z,1000.83
2018-04-23T00:37:44.717Z,1000.85
2018-04-23T00:38:44.693Z,1000.84
2018-04-23T00:39:44.695Z,1000.86
2018-04-23T00:40:44.700Z,1000.85
2018-04-23T00:41:44.623Z,1000.84
2018-04-23T00:42:44.602Z,1000.81
2018-04-23T00:43:44.621Z,1000.82
2018-04-23T00:44:44.635Z,1000.82
2018-04-23T00:45:44.730Z,1000.81
2018-04-23T00:46:44.674Z,1000.79
2018-04-23T00:47:44.701Z,1000.81
2018-04-23T00:48:44.679Z,1000.80
2018-04-23T00:49:44.713Z,1000.78
2018-04-23T00:50:44.637Z,1000.74
2018-04-23T00:51:44.643Z,1000.72
2018-04-23T00:52:44.701Z,1000.72
2018-04-23T00:53:44.747Z,1000.67
2018-04-23T00:54:44.579Z,1000.69
2018-04-23T00:55:44.696Z,1000.69
2018-04-23T00:56:44.576Z,1000.67
2018-04-23T00:57:44.667Z,1000.66
2018-04-23T00:58:44.574Z,1000.68
2018-04-23T00:59:44.705Z,1000.68
2018-04-23T01:00:44.699Z,1000.69
2018-04-23T01:01:44.632Z,1000.68
2018-04-23T01:02:44.699Z,1000.72
2018-04-23T01:03:44.651Z,1000.71
2018-04-23T01:04:44.643Z,1000.71
2018-04-23T01:05:44.716Z,1000.72
2018-04-23T01:06:44.719Z,1000.70
2018-04-23T01:07:44.723Z,1000.71
2018-04-23T01:08:44.649Z,1000.71
2018-04-23T01:09:44.646Z,1000.69
2018-04-23T01:10:44.646Z,1000.70
2018-04-23T01:11:44.684Z,1000.66
2018-04-23T01:12:44.640Z,1000.64
2018-04-23T01:13:44.718Z,1000.65
2018-04-23T01:14:44.717Z,1000.67
2018-04-23T01:15:44.715Z,1000.68
2018-04-23T01:16:44.679Z,1000.66
2018-04-23T01:17:44.758Z,1000.63
2018-04-23T01:18:44.631Z,1000.64
2018-04-23T01:19:44.659Z,1000.66
2018-04-23T01:20:44.761Z,1000.68
2018-04-23T01:21:44.725Z,1000.68
2018-04-23T01:22:44.698Z,1000.65
2018-04-23T01:23:44.689Z,1000.67
2018-04-23T01:24:44.625Z,1000.70
2018-04-23T01:25:44.628Z,1000.68
2018-04-23T01:26:44.684Z,1000.62
2018-04-23T01:27:44.690Z,1000.65
2018-04-23T01:28:44.632Z,1000.65
2018-04-23T01:29:44.690Z,1000.60
2018-04-23T01:30:44.727Z,1000.63
2018-04-23T01:31:44.731Z,1000.68
2018-04-23T01:32:44.649Z,1000.70
2018-04-23T01:33:44.772Z,1000.72
2018-04-23T01:34:44.727Z,1000.72
2018-04-23T01:35:44.768Z,1000.70
2018-04-23T01:36:44.649Z,1000.66
2018-04-23T01:37:44.743Z,1000.70
2018-04-23T01:38:44.692Z,1000.78
2018-04-23T01:39:44.655Z,1000.78
2018-04-23T01:40:44.708Z,1000.74
2018-04-23T01:41:44.757Z,1000.75
2018-04-23T01:42:44.772Z,1000.75
2018-04-23T01:43:44.708Z,1000.75
2018-04-23T01:44:44.673Z,1000.74
2018-04-23T01:45:44.736Z,1000.71
2018-04-23T01:46:44.714Z,1000.71
2018-04-23T01:47:44.738Z,1000.64
2018-04-23T01:48:44.768Z,1000.61
2018-04-23T01:49:44.704Z,1000.64
2018-04-23T01:50:44.708Z,1000.62
2018-04-23T01:51:44.712Z,1000.65
2018-04-23T01:52:44.709Z,1000.67
2018-04-23T01:53:44.772Z,1000.66
2018-04-23T01:54:44.732Z,1000.66
2018-04-23T01:55:44.773Z,1000.69
2018-04-23T01:56:44.702Z,1000.68
2018-04-23T01:57:44.670Z,1000.78
2018-04-23T01:58:44.757Z,1000.80
2018-04-23T01:59:44.708Z,1000.77
2018-04-23T02:00:44.774Z,1000.80
2018-04-23T02:01:44.651Z,1000.78
2018-04-23T02:02:44.652Z,1000.78
2018-04-23T02:03:44.666Z,1000.78
2018-04-23T02:04:44.734Z,1000.78
2018-04-23T02:05:44.724Z,1000.77
2018-04-23T02:06:44.624Z,1000.78
2018-04-23T02:07:44.619Z,1000.77
2018-04-23T02:08:44.648Z,1000.76
2018-04-23T02:09:44.646Z,1000.74
2018-04-23T02:10:44.737Z,1000.73
2018-04-23T02:11:44.658Z,1000.68
2018-04-23T02:12:44.659Z,1000.65
2018-04-23T02:13:44.739Z,1000.67
2018-04-23T02:14:44.751Z,1000.69
2018-04-23T02:15:44.679Z,1000.64
2018-04-23T02:16:44.755Z,1000.67
2018-04-23T02:17:44.688Z,1000.70
2018-04-23T02:18:44.757Z,1000.71
2018-04-23T02:19:44.678Z,1000.83
2018-04-23T02:20:44.645Z,1000.95
2018-04-23T02:21:44.685Z,1001.17
2018-04-23T02:22:44.685Z,1001.46
2018-04-23T02:23:44.761Z,1001.76
2018-04-23T02:24:44.699Z,1002.02
2018-04-23T02:25:44.666Z,1002.22
2018-04-23T02:26:44.684Z,1002.27
2018-04-23T02:27:44.754Z,1002.36
2018-04-23T02:28:44.730Z,1002.24
2018-04-23T02:29:44.763Z,1002.22
2018-04-23T02:30:44.705Z,1002.36
2018-04-23T02:31:44.743Z,1002.38
2018-04-23T02:32:44.845Z,1002.33
2018-04-23T02:33:44.729Z,1002.27
2018-04-23T02:34:44.773Z,1002.23
2018-04-23T02:35:44.830Z,1002.28
2018-04-23T02:36:44.769Z,1002.25
2018-04-23T02:37:44.740Z,1002.31
2018-04-23T02:38:44.688Z,1002.28
2018-04-23T02:39:44.741Z,1002.29
2018-04-23T02:40:44.771Z,1002.17
2018-04-23T02:41:44.712Z,1002.14
2018-04-23T02:42:44.797Z,1002.15
2018-04-23T02:43:44.711Z,1002.07
2018-04-23T02:44:44.754Z,1002.02
2018-04-23T02:45:44.777Z,1001.92
2018-04-23T02:46:44.755Z,1001.91
2018-04-23T02:47:44.800Z,1001.90
2018-04-23T02:48:44.713Z,1001.88
2018-04-23T02:49:44.808Z,1001.83
2018-04-23T02:50:44.705Z,1001.74
2018-04-23T02:51:44.758Z,1001.64
2018-04-23T02:52:44.792Z,1001.67
2018-04-23T02:53:44.781Z,1001.69
2018-04-23T02:54:44.779Z,1001.64
2018-04-23T02:55:44.792Z,1001.66
2018-04-23T02:56:44.823Z,1001.60
2018-04-23T02:57:44.773Z,1001.62
2018-04-23T02:58:44.784Z,1001.58
2018-04-23T02:59:44.809Z,1001.48
2018-04-23T03:00:44.812Z,1001.50
2018-04-23T03:01:44.813Z,1001.49
2018-04-23T03:02:44.731Z,1001.45
2018-04-23T03:03:44.766Z,1001.43
2018-04-23T03:04:44.821Z,1001.51
2018-04-23T03:05:44.752Z,1001.50
2018-04-23T03:06:44.759Z,1001.39
2018-04-23T03:07:44.731Z,1001.29
2018-04-23T03:08:44.811Z,1001.30
2018-04-23T03:09:44.693Z,1001.34
2018-04-23T03:10:44.796Z,1001.33
2018-04-23T03:11:44.815Z,1001.35
2018-04-23T03:12:44.757Z,1001.33
2018-04-23T03:13:44.815Z,1001.25
2018-04-23T03:14:44.758Z,1001.26
2018-04-23T03:15:44.711Z,1001.22
2018-04-23T03:16:44.757Z,1001.19
2018-04-23T03:17:44.766Z,1001.23
2018-04-23T03:18:44.792Z,1001.20
2018-04-23T03:19:44.756Z,1001.24
2018-04-23T03:20:44.838Z,1001.20
2018-04-23T03:21:44.839Z,1001.22
2018-04-23T03:22:44.823Z,1001.21
2018-04-23T03:23:44.804Z,1001.10
2018-04-23T03:24:44.703Z,1001.13
2018-04-23T03:25:44.828Z,1001.09
2018-04-23T03:26:44.815Z,1001.11
2018-04-23T03:27:44.780Z,1001.07
2018-04-23T03:28:44.724Z,1001.05
2018-04-23T03:29:44.851Z,1001.01
2018-04-23T03:30:44.823Z,1001.02
2018-04-23T03:31:44.811Z,1001.01
2018-04-23T03:32:44.834Z,1001.02
2018-04-23T03:33:44.758Z,1001.02
2018-04-23T03:34:44.828Z,1001.04
2018-04-23T03:35:44.768Z,1000.99
2018-04-23T03:36:44.731Z,1000.97
2018-04-23T03:37:44.785Z,1000.95
2018-04-23T03:38:44.817Z,1001.01
2018-04-23T03:39:44.767Z,1000.99
2018-04-23T03:40:44.808Z,1001.03
2018-04-23T03:41:44.842Z,1001.00
2018-04-23T03:42:44.809Z,1000.98
2018-04-23T03:43:44.787Z,1000.97
2018-04-23T03:44:44.815Z,1000.97
2018-04-23T03:45:44.844Z,1000.95
2018-04-23T03:46:44.733Z,1001.02
2018-04-23T03:47:44.756Z,1001.04
2018-04-23T03:48:44.788Z,1001.08
2018-04-23T03:49:44.787Z,1001.06
2018-04-23T03:50:44.718Z,1001.04
2018-04-23T03:51:44.820Z,1001.10
2018-04-23T03:52:44.843Z,1001.09
2018-04-23T03:53:44.821Z,1001.11
2018-04-23T03:54:44.820Z,1001.07
2018-04-23T03:55:44.754Z,1001.04
2018-04-23T03:56:44.751Z,1001.02
2018-04-23T03:57:44.809Z,1001.05
2018-04-23T03:58:44.827Z,1001.08
2018-04-23T03:59:44.752Z,1001.12
2018-04-23T04:00:44.825Z,1001.11
2018-04-23T04:01:44.754Z,1001.18
2018-04-23T04:02:44.752Z,1001.25
2018-04-23T04:03:44.834Z,1001.23
2018-04-23T04:04:44.833Z,1001.29
2018-04-23T04:05:44.797Z,1001.30
2018-04-23T04:06:44.731Z,1001.34
2018-04-23T04:07:44.762Z,1001.34
2018-04-23T04:08:44.766Z,1001.37
2018-04-23T04:09:44.752Z,1001.37
2018-04-23T04:10:44.838Z,1001.45
2018-04-23T04:11:44.736Z,1001.46
2018-04-23T04:12:44.831Z,1001.44
2018-04-23T04:13:44.827Z,1001.41
2018-04-23T04:14:44.748Z,1001.41
2018-04-23T04:15:44.858Z,1001.46
2018-04-23T04:16:44.799Z,1001.42
2018-04-23T04:17:44.838Z,1001.42
2018-04-23T04:18:44.836Z,1001.45
2018-04-23T04:19:44.874Z,1001.43
2018-04-23T04:20:44.750Z,1001.45
2018-04-23T04:21:44.760Z,1001.46
2018-04-23T04:22:44.806Z,1001.45
2018-04-23T04:23:44.861Z,1001.47
2018-04-23T04:24:44.929Z,1001.52
2018-04-23T04:25:44.879Z,1001.50
2018-04-23T04:26:44.872Z,1001.49
2018-04-23T04:27:44.867Z,1001.53
2018-04-23T04:28:44.840Z,1001.48
2018-04-23T04:29:44.799Z,1001.49
2018-04-23T04:30:44.784Z,1001.47
2018-04-23T04:31:44.874Z,1001.48
2018-04-23T04:32:44.856Z,1001.48
2018-04-23T04:33:44.843Z,1001.45
2018-04-23T04:34:44.831Z,1001.45
2018-04-23T04:35:44.794Z,1001.50
2018-04-23T04:36:44.720Z,1001.49
2018-04-23T04:37:44.707Z,1001.52
2018-04-23T04:38:44.801Z,1001.57
2018-04-23T04:39:44.735Z,1001.57
2018-04-23T04:40:44.802Z,1001.57
2018-04-23T04:41:44.711Z,1001.58
2018-04-23T04:42:44.719Z,1001.58
2018-04-23T04:43:44.709Z,1001.64
2018-04-23T04:44:44.801Z,1001.61
2018-04-23T04:45:44.790Z,1001.64
2018-04-23T04:46:44.845Z,1001.62
2018-04-23T04:47:44.741Z,1001.59
2018-04-23T04:48:44.845Z,1001.57
2018-04-23T04:49:44.756Z,1001.61
2018-04-23T04:50:44.799Z,1001.59
2018-04-23T04:51:44.848Z,1001.57
2018-04-23T04:52:44.812Z,1001.61
2018-04-23T04:53:44.726Z,1001.65
2018-04-23T04:54:44.850Z,1001.67
2018-04-23T04:55:44.763Z,1001.64
2018-04-23T04:56:44.843Z,1001.77
2018-04-23T04:57:44.807Z,1001.80
2018-04-23T04:58:44.820Z,1001.84
2018-04-23T04:59:44.850Z,1001.84
2018-04-23T05:00:44.807Z,1001.87
2018-04-23T05:01:44.823Z,1001.85
2018-04-23T05:02:44.789Z,1001.89
2018-04-23T05:03:44.736Z,1001.94
2018-04-23T05:04:44.862Z,1001.92
2018-04-23T05:05:44.865Z,1001.96
2018-04-23T05:06:44.904Z,1002.04
2018-04-23T05:07:44.829Z,1002.08
2018-04-23T05:08:44.792Z,1002.08
2018-04-23T05:09:44.774Z,1002.03
2018-04-23T05:10:44.808Z,1002.06
2018-04-23T05:11:44.906Z,1002.03
2018-04-23T05:12:44.904Z,1001.98
2018-04-23T05:13:44.772Z,1002.03
2018-04-23T05:14:44.792Z,1002.01
2018-04-23T05:15:44.775Z,1002.04
2018-04-23T05:16:44.777Z,1002.07
2018-04-23T05:17:44.866Z,1002.04
2018-04-23T05:18:44.746Z,1002.06
2018-04-23T05:19:44.789Z,1002.06
2018-04-23T05:20:44.800Z,1002.09
2018-04-23T05:21:44.952Z,1002.13
2018-04-23T05:22:44.837Z,1002.11
2018-04-23T05:23:44.917Z,1002.14
2018-04-23T05:24:44.781Z,1002.12
2018-04-23T05:25:44.862Z,1002.14
2018-04-23T05:26:44.860Z,1002.12
2018-04-23T05:27:44.904Z,1002.17
2018-04-23T05:28:44.877Z,1002.19
2018-04-23T05:29:44.816Z,1002.16
2018-04-23T05:30:44.877Z,1002.18
2018-04-23T05:31:44.786Z,1002.19
2018-04-23T05:32:44.790Z,1002.15
2018-04-23T05:33:44.800Z,1002.13
2018-04-23T05:34:44.889Z,1002.17
2018-04-23T05:35:44.802Z,1002.15
2018-04-23T05:36:44.802Z,1002.11
2018-04-23T05:37:44.886Z,1002.11
2018-04-23T05:38:44.880Z,1002.10
2018-04-23T05:39:44.811Z,1002.09
2018-04-23T05:40:44.873Z,1002.01
2018-04-23T05:41:44.883Z,1002.05
2018-04-23T05:42:44.791Z,1002.07
2018-04-23T05:43:44.885Z,1002.11
2018-04-23T05:44:44.806Z,1002.16
2018-04-23T05:45:44.925Z,1002.20
2018-04-23T05:46:44.893Z,1002.22
2018-04-23T05:47:44.819Z,1002.19
2018-04-23T05:48:44.892Z,1002.14
2018-04-23T05:49:44.895Z,1002.11
2018-04-23T05:50:44.827Z,1002.11
2018-04-23T05:51:44.899Z,1002.01
2018-04-23T05:52:44.890Z,1002.04
2018-04-23T05:53:44.827Z,1002.01
2018-04-23T05:54:44.911Z,1002.00
2018-04-23T05:55:44.913Z,1001.99
2018-04-23T05:56:44.935Z,1002.04
2018-04-23T05:57:44.832Z,1002.07
2018-04-23T05:58:44.901Z,1002.08
2018-04-23T05:59:44.920Z,1002.11
2018-04-23T06:00:44.925Z,1002.08
2018-04-23T06:01:44.875Z,1002.07
2018-04-23T06:02:44.826Z,1002.07
2018-04-23T06:03:44.954Z,1002.10
2018-04-23T06:04:44.901Z,1002.15
2018-04-23T06:05:44.792Z,1002.08
2018-04-23T06:06:44.890Z,1002.03
2018-04-23T06:07:44.888Z,1002.04
2018-04-23T06:08:44.826Z,1002.04
2018-04-23T06:09:44.896Z,1002.03
2018-04-23T06:10:44.896Z,1002.00
2018-04-23T06:11:44.872Z,1002.04
2018-04-23T06:12:44.784Z,1002.01
2018-04-23T06:13:44.899Z,1002.00
2018-04-23T06:14:44.901Z,1001.96
2018-04-23T06:15:44.829Z,1001.91
2018-04-23T06:16:44.946Z,1001.89
2018-04-23T06:17:44.846Z,1001.91
2018-04-23T06:18:44.826Z,1001.86
2018-04-23T06:19:44.917Z,1001.86
2018-04-23T06:20:44.929Z,1001.88
2018-04-23T06:21:44.815Z,1001.85
2018-04-23T06:22:44.836Z,1001.84
2018-04-23T06:23:44.975Z,1001.84
2018-04-23T06:24:44.917Z,1001.86
2018-04-23T06:25:44.915Z,1001.88
2018-04-23T06:26:44.843Z,1001.89
2018-04-23T06:27:44.916Z,1001.89
2018-04-23T06:28:44.843Z,1001.87
2018-04-23T06:29:44.845Z,1001.80
2018-04-23T06:30:44.918Z,1001.77
2018-04-23T06:31:44.848Z,1001.81
2018-04-23T06:32:44.848Z,1001.86
2018-04-23T06:33:44.892Z,1001.91
2018-04-23T06:34:44.850Z,1001.91
2018-04-23T06:35:44.843Z,1001.91
2018-04-23T06:36:44.883Z,1001.97
2018-04-23T06:37:44.893Z,1001.97
2018-04-23T06:38:44.956Z,1001.97
2018-04-23T06:39:44.917Z,1001.99
2018-04-23T06:40:44.943Z,1001.96
2018-04-23T06:41:44.951Z,1001.92
2018-04-23T06:42:44.829Z,1001.93
2018-04-23T06:43:44.896Z,1001.97
2018-04-23T06:44:44.920Z,1002.04
2018-04-23T06:45:44.896Z,1002.04
2018-04-23T06:46:44.906Z,1002.10
2018-04-23T06:47:44.953Z,1002.09
2018-04-23T06:48:44.845Z,1002.12
2018-04-23T06:49:44.934Z,1002.18
2018-04-23T06:50:44.835Z,1002.18
2018-04-23T06:51:44.928Z,1002.22
2018-04-23T06:52:44.897Z,1002.18
2018-04-23T06:53:44.897Z,1002.21
2018-04-23T06:54:44.865Z,1002.31
2018-04-23T06:55:44.961Z,1002.31
2018-04-23T06:56:44.903Z,1002.29
2018-04-23T06:57:44.968Z,1002.31
2018-04-23T06:58:44.907Z,1002.28
2018-04-23T06:59:44.912Z,1002.23
2018-04-23T07:00:44.840Z,1002.22
2018-04-23T07:01:44.991Z,1002.19
2018-04-23T07:02:44.907Z,1002.18
2018-04-23T07:03:44.960Z,1002.20
2018-04-23T07:04:44.930Z,1002.18
2018-04-23T07:05:44.913Z,1002.20
2018-04-23T07:06:44.901Z,1002.24
2018-04-23T07:07:44.939Z,1002.25
2018-04-23T07:08:44.965Z,1002.23
2018-04-23T07:09:44.979Z,1002.21
2018-04-23T07:10:44.943Z,1002.17
2018-04-23T07:11:44.977Z,1002.17
2018-04-23T07:12:44.846Z,1002.24
2018-04-23T07:13:45.000Z,1002.26
2018-04-23T07:14:44.923Z,1002.28
2018-04-23T07:15:44.942Z,1002.30
2018-04-23T07:16:44.851Z,1002.28
2018-04-23T07:17:44.904Z,1002.29
2018-04-23T07:18:44.852Z,1002.32
2018-04-23T07:19:44.937Z,1002.33
2018-04-23T07:20:44.866Z,1002.34
2018-04-23T07:21:44.939Z,1002.34
2018-04-23T07:22:44.942Z,1002.39
2018-04-23T07:23:44.865Z,1002.39
2018-04-23T07:24:44.876Z,1002.38
2018-04-23T07:25:44.874Z,1002.39
2018-04-23T07:26:44.857Z,1002.44
2018-04-23T07:27:44.946Z,1002.34
2018-04-23T07:28:44.945Z,1002.31
2018-04-23T07:29:44.860Z,1002.34
2018-04-23T07:30:44.919Z,1002.36
2018-04-23T07:31:44.901Z,1002.44
2018-04-23T07:32:44.948Z,1002.49
2018-04-23T07:33:44.970Z,1002.48
2018-04-23T07:34:44.897Z,1002.50
2018-04-23T07:35:44.980Z,1002.50
2018-04-23T07:36:44.920Z,1002.46
2018-04-23T07:37:44.957Z,1002.55
2018-04-23T07:38:44.981Z,1002.57
2018-04-23T07:39:44.964Z,1002.60
2018-04-23T07:40:44.999Z,1002.54
2018-04-23T07:41:44.988Z,1002.55
2018-04-23T07:42:44.984Z,1002.55
2018-04-23T07:43:44.961Z,1002.56
2018-04-23T07:44:45.031Z,1002.60
2018-04-23T07:45:44.989Z,1002.61
2018-04-23T07:46:44.888Z,1002.59
2018-04-23T07:47:44.965Z,1002.58
2018-04-23T07:48:44.951Z,1002.57
2018-04-23T07:49:44.890Z,1002.54
2018-04-23T07:50:44.963Z,1002.54
2018-04-23T07:51:45.042Z,1002.55
2018-04-23T07:52:44.975Z,1002.55
2018-04-23T07:53:45.035Z,1002.54
2018-04-23T07:54:44.872Z,1002.56
2018-04-23T07:55:44.968Z,1002.66
2018-04-23T07:56:45.001Z,1002.67
2018-04-23T07:57:45.007Z,1002.70
2018-04-23T07:58:44.999Z,1002.72
2018-04-23T07:59:44.881Z,1002.69
2018-04-23T08:00:44.936Z,1002.69
2018-04-23T08:01:44.996Z,1002.73
2018-04-23T08:02:44.975Z,1002.70
2018-04-23T08:03:45.011Z,1002.70
2018-04-23T08:04:44.954Z,1002.74
2018-04-23T08:05:45.007Z,1002.74
2018-04-23T08:06:44.944Z,1002.80
2018-04-23T08:07:44.899Z,1002.80
2018-04-23T08:08:44.947Z,1002.84
2018-04-23T08:09:45.015Z,1002.86
2018-04-23T08:10:45.019Z,1002.83
2018-04-23T08:11:45.012Z,1002.86
2018-04-23T08:12:44.979Z,1002.87
2018-04-23T08:13:44.947Z,1002.83
2018-04-23T08:14:44.957Z,1002.81
2018-04-23T08:15:44.987Z,1002.84
2018-04-23T08:16:44.961Z,1002.88
2018-04-23T08:17:44.908Z,1002.88
2018-04-23T08:18:44.951Z,1002.87
2018-04-23T08:19:45.065Z,1002.84
2018-04-23T08:20:44.988Z,1002.89
2018-04-23T08:21:44.947Z,1002.87
2018-04-23T08:22:45.015Z,1002.85
2018-04-23T08:23:44.918Z,1002.84
2018-04-23T08:24:45.011Z,1002.85
2018-04-23T08:25:45.011Z,1002.88
2018-04-23T08:26:45.014Z,1002.87
2018-04-23T08:27:44.984Z,1002.89
2018-04-23T08:28:45.012Z,1002.89
2018-04-23T08:29:45.028Z,1002.85
2018-04-23T08:30:44.988Z,1002.92
2018-04-23T08:31:45.078Z,1002.90
2018-04-23T08:32:44.898Z,1002.92
2018-04-23T08:33:44.997Z,1002.92
2018-04-23T08:34:44.912Z,1002.99
2018-04-23T08:35:44.990Z,1003.02
2018-04-23T08:36:44.920Z,1003.02
2018-04-23T08:37:44.900Z,1003.01
2018-04-23T08:38:44.956Z,1003.00
2018-04-23T08:39:44.985Z,1002.97
2018-04-23T08:40:44.918Z,1003.03
2018-04-23T08:41:44.870Z,1003.04
2018-04-23T08:42:44.916Z,1003.05
2018-04-23T08:43:44.933Z,1003.05
2018-04-23T08:44:44.992Z,1003.08
2018-04-23T08:45:44.935Z,1003.04
2018-04-23T08:46:45.006Z,1003.05
2018-04-23T08:47:44.931Z,1003.02
2018-04-23T08:48:45.008Z,1003.12
2018-04-23T08:49:45.004Z,1003.11
2018-04-23T08:50:44.951Z,1003.11
2018-04-23T08:51:44.948Z,1003.11
2018-04-23T08:52:44.940Z,1003.14
2018-04-23T08:53:44.937Z,1003.13
2018-04-23T08:54:44.942Z,1003.17
2018-04-23T08:55:45.116Z,1003.18
2018-04-23T08:56:45.068Z,1003.19
2018-04-23T08:57:45.005Z,1003.17
2018-04-23T08:58:44.931Z,1003.18
2018-04-23T08:59:45.038Z,1003.14
2018-04-23T09:00:44.951Z,1003.16
2018-04-23T09:01:45.012Z,1003.17
2018-04-23T09:02:45.041Z,1003.19
2018-04-23T09:03:45.036Z,1003.16
2018-04-23T09:04:45.016Z,1003.18
2018-04-23T09:05:44.973Z,1003.22
2018-04-23T09:06:45.051Z,1003.22
2018-04-23T09:07:45.051Z,1003.20
2018-04-23T09:08:45.015Z,1003.24
2018-04-23T09:09:45.028Z,1003.21
2018-04-23T09:10:44.941Z,1003.19
2018-04-23T09:11:44.985Z,1003.25
2018-04-23T09:12:44.990Z,1003.26
2018-04-23T09:13:45.017Z,1003.26
2018-04-23T09:14:45.038Z,1003.24
2018-04-23T09:15:44.951Z,1003.27
2018-04-23T09:16:44.950Z,1003.33
2018-04-23T09:17:45.028Z,1003.29
2018-04-23T09:18:44.889Z,1003.33
2018-04-23T09:19:44.962Z,1003.33
2018-04-23T09:20:44.921Z,1003.33
2018-04-23T09:21:44.964Z,1003.32
2018-04-23T09:22:44.956Z,1003.34
2018-04-23T09:23:44.930Z,1003.35
2018-04-23T09:24:44.945Z,1003.35
2018-04-23T09:25:45.050Z,1003.33
2018-04-23T09:26:45.063Z,1003.33
2018-04-23T09:27:45.025Z,1003.34
2018-04-23T09:28:45.057Z,1003.33
2018-04-23T09:29:45.085Z,1003.31
2018-04-23T09:30:45.010Z,1003.31
2018-04-23T09:31:45.025Z,1003.32
2018-04-23T09:32:44.966Z,1003.37
2018-04-23T09:33:45.058Z,1003.38
2018-04-23T09:34:45.060Z,1003.40
2018-04-23T09:35:44.941Z,1003.31
2018-04-23T09:36:45.075Z,1003.36
2018-04-23T09:37:45.073Z,1003.37
2018-04-23T09:38:44.952Z,1003.35
2018-04-23T09:40:45.074Z,1003.38
2018-04-23T09:41:44.942Z,1003.37
2018-04-23T09:42:45.077Z,1003.40
2018-04-23T09:43:45.004Z,1003.39
2018-04-23T09:44:45.039Z,1003.41
2018-04-23T09:45:45.106Z,1003.46
2018-04-23T09:46:45.037Z,1003.40
2018-04-23T09:47:45.038Z,1003.42
2018-04-23T09:48:45.041Z,1003.40
2018-04-23T09:49:44.962Z,1003.42
2018-04-23T09:50:45.008Z,1003.42
2018-04-23T09:51:45.070Z,1003.41
2018-04-23T09:52:45.010Z,1003.38
2018-04-23T09:53:45.051Z,1003.43
2018-04-23T09:54:45.024Z,1003.48
2018-04-23T09:55:44.979Z,1003.48
2018-04-23T09:56:45.045Z,1003.48
2018-04-23T09:57:45.047Z,1003.51
2018-04-23T09:58:44.981Z,1003.44
2018-04-23T09:59:44.987Z,1003.45
2018-04-23T10:00:44.979Z,1003.52
2018-04-23T10:01:45.018Z,1003.55
2018-04-23T10:02:45.060Z,1003.52
2018-04-23T10:03:44.989Z,1003.47
2018-04-23T10:04:45.055Z,1003.53
2018-04-23T10:05:45.019Z,1003.48
2018-04-23T10:06:44.992Z,1003.46
2018-04-23T10:07:45.085Z,1003.49
2018-04-23T10:08:44.992Z,1003.49
2018-04-23T10:09:45.059Z,1003.52
2018-04-23T10:10:44.958Z,1003.47
2018-04-23T10:11:44.991Z,1003.56
2018-04-23T10:12:44.993Z,1003.53
2018-04-23T10:13:45.096Z,1003.61
2018-04-23T10:14:45.066Z,1003.60
2018-04-23T10:15:45.091Z,1003.65
2018-04-23T10:16:45.093Z,1003.58
2018-04-23T10:17:45.064Z,1003.60
2018-04-23T10:18:45.042Z,1003.61
2018-04-23T10:19:44.966Z,1003.59
2018-04-23T10:20:45.022Z,1003.60
2018-04-23T10:21:45.026Z,1003.67
2018-04-23T10:22:45.078Z,1003.66
2018-04-23T10:23:45.140Z,1003.63
2018-04-23T10:24:45.036Z,1003.63
2018-04-23T10:25:45.040Z,1003.61
2018-04-23T10:26:44.967Z,1003.61
2018-04-23T10:27:44.983Z,1003.64
2018-04-23T10:28:44.987Z,1003.79
2018-04-23T10:29:45.090Z,1003.70
2018-04-23T10:30:45.101Z,1003.72
2018-04-23T10:31:45.074Z,1003.80
2018-04-23T10:32:45.110Z,1003.77
2018-04-23T10:33:45.043Z,1003.71
2018-04-23T10:34:44.991Z,1003.65
2018-04-23T10:35:45.036Z,1003.64
2018-04-23T10:36:45.078Z,1003.65
2018-04-23T10:37:45.075Z,1003.70
2018-04-23T10:38:45.073Z,1003.67
2018-04-23T10:39:44.993Z,1003.75
2018-04-23T10:40:44.991Z,1003.79
2018-04-23T10:41:44.981Z,1003.81
2018-04-23T10:42:45.059Z,1003.78
2018-04-23T10:43:44.997Z,1003.72
2018-04-23T10:44:45.079Z,1003.71
2018-04-23T10:45:45.029Z,1003.73
2018-04-23T10:46:45.077Z,1003.75
2018-04-23T10:47:44.986Z,1003.72
2018-04-23T10:48:45.013Z,1003.71
2018-04-23T10:49:45.072Z,1003.69
2018-04-23T10:50:45.015Z,1003.71
2018-04-23T10:51:45.033Z,1003.75
2018-04-23T10:52:45.065Z,1003.78
2018-04-23T10:53:44.953Z,1003.81
2018-04-23T10:54:45.031Z,1003.73
2018-04-23T10:55:45.099Z,1003.75
2018-04-23T10:56:44.985Z,1003.77
2018-04-23T10:57:45.062Z,1003.83
2018-04-23T10:58:45.124Z,1003.83
2018-04-23T10:59:45.105Z,1003.82
2018-04-23T11:00:45.120Z,1003.80
2018-04-23T11:01:45.045Z,1003.79
2018-04-23T11:02:45.065Z,1003.78
2018-04-23T11:03:45.027Z,1003.77
2018-04-23T11:04:45.116Z,1003.82
2018-04-23T11:05:45.107Z,1003.89
2018-04-23T11:06:45.026Z,1003.85
2018-04-23T11:07:45.088Z,1003.84
2018-04-23T11:08:45.023Z,1003.73
2018-04-23T11:09:45.123Z,1003.81
2018-04-23T11:10:45.034Z,1003.82
2018-04-23T11:11:45.094Z,1003.78
2018-04-23T11:12:45.025Z,1003.84
2018-04-23T11:13:45.111Z,1003.82
2018-04-23T11:14:45.096Z,1003.81
2018-04-23T11:15:45.091Z,1003.93
2018-04-23T11:16:45.024Z,1003.83
2018-04-23T11:17:45.094Z,1003.74
2018-04-23T11:18:45.036Z,1003.80
2018-04-23T11:19:44.985Z,1003.74
2018-04-23T11:20:45.031Z,1003.69
2018-04-23T11:21:45.006Z,1003.75
2018-04-23T11:22:45.053Z,1003.79
2018-04-23T11:23:45.093Z,1003.71
2018-04-23T11:24:45.149Z,1003.66
2018-04-23T11:25:45.093Z,1003.74
2018-04-23T11:26:45.008Z,1003.63
2018-04-23T11:27:45.007Z,1003.66
2018-04-23T11:28:45.138Z,1003.62
2018-04-23T11:29:45.136Z,1003.59
2018-04-23T11:30:45.146Z,1003.68
2018-04-23T11:31:45.140Z,1003.62
2018-04-23T11:32:45.123Z,1003.69
2018-04-23T11:33:45.126Z,1003.67
2018-04-23T11:34:45.108Z,1003.74
2018-04-23T11:35:45.136Z,1003.75
2018-04-23T11:36:45.143Z,1003.78
2018-04-23T11:37:45.078Z,1003.73
2018-04-23T11:38:45.073Z,1003.85
2018-04-23T11:39:45.134Z,1003.77
2018-04-23T11:40:45.149Z,1003.73
2018-04-23T11:41:45.149Z,1003.74
2018-04-23T11:42:45.183Z,1003.73
2018-04-23T11:43:45.088Z,1003.73
2018-04-23T11:44:45.082Z,1003.74
2018-04-23T11:45:45.079Z,1003.81
2018-04-23T11:46:45.147Z,1003.88
2018-04-23T11:47:45.140Z,1003.78
2018-04-23T11:48:45.160Z,1003.91
2018-04-23T11:49:45.152Z,1003.79
2018-04-23T11:50:45.076Z,1003.79
2018-04-23T11:51:45.076Z,1003.73
2018-04-23T11:52:45.015Z,1003.64
2018-04-23T11:53:45.096Z,1003.71
2018-04-23T11:54:45.153Z,1003.79
2018-04-23T11:55:45.149Z,1003.77
2018-04-23T11:56:45.027Z,1003.82
2018-04-23T11:57:45.120Z,1003.78
2018-04-23T11:58:45.150Z,1003.77
2018-04-23T11:59:45.028Z,1003.71
2018-04-23T12:00:45.154Z,1003.83
2018-04-23T12:01:45.043Z,1003.80
2018-04-23T12:02:45.090Z,1003.79
2018-04-23T12:03:45.037Z,1003.73
2018-04-23T12:04:45.101Z,1003.74
2018-04-23T12:05:45.151Z,1003.75
2018-04-23T12:06:45.049Z,1003.68